sensor_id;sensor_type;location;lat;lon;timestamp;P1;durP1;ratioP1;P2;durP2;ratioP2
1446;SDS011;717;51.522;7.266;2022-08-19T00:00:17;5.53;;;5.13;;
1446;SDS011;717;51.522;7.266;2022-08-19T00:02:44;5.35;;;4.95;;
1446;SDS011;717;51.522;7.266;2022-08-19T00:05:12;5.45;;;4.95;;
1446;SDS011;717;51.522;7.266;2022-08-19T00:07:40;5.63;;;5.13;;
1446;SDS011;717;51.522;7.266;2022-08-19T00:10:09;5.53;;;5.03;;
1446;SDS011;717;51.522;7.266;2022-08-19T00:12:37;6.20;;;5.60;;
1446;SDS011;717;51.522;7.266;2022-08-19T00:15:04;5.85;;;5.22;;
1446;SDS011;717;51.522;7.266;2022-08-19T00:17:39;5.78;;;5.10;;
1446;SDS011;717;51.522;7.266;2022-08-19T00:20:08;5.40;;;5.00;;
1446;SDS011;717;51.522;7.266;2022-08-19T00:22:36;5.38;;;4.88;;
1446;SDS011;717;51.522;7.266;2022-08-19T00:25:03;5.53;;;5.03;;
1446;SDS011;717;51.522;7.266;2022-08-19T00:27:31;5.45;;;5.05;;
1446;SDS011;717;51.522;7.266;2022-08-19T00:29:58;5.90;;;5.30;;
1446;SDS011;717;51.522;7.266;2022-08-19T00:32:25;5.47;;;4.97;;
1446;SDS011;717;51.522;7.266;2022-08-19T00:34:53;5.72;;;5.22;;
1446;SDS011;717;51.522;7.266;2022-08-19T00:37:20;5.47;;;4.97;;
1446;SDS011;717;51.522;7.266;2022-08-19T00:39:48;5.45;;;4.95;;
1446;SDS011;717;51.522;7.266;2022-08-19T00:42:15;5.25;;;4.85;;
1446;SDS011;717;51.522;7.266;2022-08-19T00:44:43;5.70;;;5.00;;
1446;SDS011;717;51.522;7.266;2022-08-19T00:47:10;5.30;;;4.88;;
1446;SDS011;717;51.522;7.266;2022-08-19T00:49:38;5.38;;;4.93;;
1446;SDS011;717;51.522;7.266;2022-08-19T00:52:12;6.20;;;5.10;;
1446;SDS011;717;51.522;7.266;2022-08-19T00:54:42;5.43;;;4.93;;
1446;SDS011;717;51.522;7.266;2022-08-19T00:57:15;6.00;;;5.40;;
1446;SDS011;717;51.522;7.266;2022-08-19T00:59:45;6.10;;;5.60;;
1446;SDS011;717;51.522;7.266;2022-08-19T01:02:13;6.03;;;5.53;;
1446;SDS011;717;51.522;7.266;2022-08-19T01:04:41;6.65;;;6.03;;
1446;SDS011;717;51.522;7.266;2022-08-19T01:07:08;5.93;;;5.40;;
1446;SDS011;717;51.522;7.266;2022-08-19T01:09:36;6.03;;;5.57;;
1446;SDS011;717;51.522;7.266;2022-08-19T01:12:03;6.50;;;5.75;;
1446;SDS011;717;51.522;7.266;2022-08-19T01:14:30;6.38;;;5.88;;
1446;SDS011;717;51.522;7.266;2022-08-19T01:16:57;6.40;;;5.68;;
1446;SDS011;717;51.522;7.266;2022-08-19T01:19:26;7.03;;;6.43;;
1446;SDS011;717;51.522;7.266;2022-08-19T01:21:58;6.78;;;6.18;;
1446;SDS011;717;51.522;7.266;2022-08-19T01:24:29;7.07;;;6.47;;
1446;SDS011;717;51.522;7.266;2022-08-19T01:26:56;7.63;;;7.00;;
1446;SDS011;717;51.522;7.266;2022-08-19T01:29:24;7.25;;;6.70;;
1446;SDS011;717;51.522;7.266;2022-08-19T01:31:51;7.07;;;6.47;;
1446;SDS011;717;51.522;7.266;2022-08-19T01:34:18;7.80;;;7.00;;
1446;SDS011;717;51.522;7.266;2022-08-19T01:36:45;9.32;;;7.18;;
1446;SDS011;717;51.522;7.266;2022-08-19T01:39:14;8.35;;;7.65;;
1446;SDS011;717;51.522;7.266;2022-08-19T01:41:45;8.18;;;7.47;;
1446;SDS011;717;51.522;7.266;2022-08-19T01:44:14;8.35;;;7.55;;
1446;SDS011;717;51.522;7.266;2022-08-19T01:46:43;8.32;;;7.70;;
1446;SDS011;717;51.522;7.266;2022-08-19T01:49:09;8.32;;;7.55;;
1446;SDS011;717;51.522;7.266;2022-08-19T01:51:37;8.35;;;7.55;;
1446;SDS011;717;51.522;7.266;2022-08-19T01:54:04;8.65;;;7.85;;
1446;SDS011;717;51.522;7.266;2022-08-19T01:56:31;8.50;;;7.65;;
1446;SDS011;717;51.522;7.266;2022-08-19T01:59:00;8.35;;;7.65;;
1446;SDS011;717;51.522;7.266;2022-08-19T02:01:29;9.07;;;8.27;;
1446;SDS011;717;51.522;7.266;2022-08-19T02:03:57;7.95;;;7.32;;
1446;SDS011;717;51.522;7.266;2022-08-19T02:06:25;9.05;;;8.32;;
1446;SDS011;717;51.522;7.266;2022-08-19T02:08:52;8.77;;;7.97;;
1446;SDS011;717;51.522;7.266;2022-08-19T02:11:19;8.88;;;8.18;;
1446;SDS011;717;51.522;7.266;2022-08-19T02:13:47;9.45;;;8.65;;
1446;SDS011;717;51.522;7.266;2022-08-19T02:16:17;8.95;;;8.15;;
1446;SDS011;717;51.522;7.266;2022-08-19T02:18:45;8.55;;;7.85;;
1446;SDS011;717;51.522;7.266;2022-08-19T02:21:13;9.05;;;8.25;;
1446;SDS011;717;51.522;7.266;2022-08-19T02:23:40;9.70;;;8.75;;
1446;SDS011;717;51.522;7.266;2022-08-19T02:26:07;9.10;;;8.30;;
1446;SDS011;717;51.522;7.266;2022-08-19T02:28:34;9.23;;;8.43;;
1446;SDS011;717;51.522;7.266;2022-08-19T02:31:02;10.43;;;9.32;;
1446;SDS011;717;51.522;7.266;2022-08-19T02:33:30;9.32;;;8.60;;
1446;SDS011;717;51.522;7.266;2022-08-19T02:35:57;10.00;;;9.10;;
1446;SDS011;717;51.522;7.266;2022-08-19T02:38:24;9.93;;;9.07;;
1446;SDS011;717;51.522;7.266;2022-08-19T02:40:54;9.57;;;8.63;;
1446;SDS011;717;51.522;7.266;2022-08-19T02:43:22;9.73;;;8.75;;
1446;SDS011;717;51.522;7.266;2022-08-19T02:45:52;9.52;;;8.63;;
1446;SDS011;717;51.522;7.266;2022-08-19T02:48:20;9.07;;;8.38;;
1446;SDS011;717;51.522;7.266;2022-08-19T02:50:50;8.85;;;8.15;;
1446;SDS011;717;51.522;7.266;2022-08-19T02:53:20;9.07;;;8.38;;
1446;SDS011;717;51.522;7.266;2022-08-19T02:55:48;9.32;;;8.50;;
1446;SDS011;717;51.522;7.266;2022-08-19T02:58:16;9.50;;;8.70;;
1446;SDS011;717;51.522;7.266;2022-08-19T03:00:44;9.45;;;8.55;;
1446;SDS011;717;51.522;7.266;2022-08-19T03:03:11;9.40;;;8.48;;
1446;SDS011;717;51.522;7.266;2022-08-19T03:05:39;9.75;;;8.85;;
1446;SDS011;717;51.522;7.266;2022-08-19T03:08:07;9.98;;;9.07;;
1446;SDS011;717;51.522;7.266;2022-08-19T03:10:41;9.95;;;9.15;;
1446;SDS011;717;51.522;7.266;2022-08-19T03:13:10;9.88;;;8.98;;
1446;SDS011;717;51.522;7.266;2022-08-19T03:15:41;9.93;;;9.13;;
1446;SDS011;717;51.522;7.266;2022-08-19T03:18:09;10.25;;;9.35;;
1446;SDS011;717;51.522;7.266;2022-08-19T03:20:40;10.38;;;9.48;;
1446;SDS011;717;51.522;7.266;2022-08-19T03:23:09;10.82;;;9.70;;
1446;SDS011;717;51.522;7.266;2022-08-19T03:25:37;10.43;;;9.15;;
1446;SDS011;717;51.522;7.266;2022-08-19T03:28:08;9.90;;;9.00;;
1446;SDS011;717;51.522;7.266;2022-08-19T03:30:36;9.95;;;9.02;;
1446;SDS011;717;51.522;7.266;2022-08-19T03:33:04;12.68;;;10.20;;
1446;SDS011;717;51.522;7.266;2022-08-19T03:35:31;11.48;;;10.40;;
1446;SDS011;717;51.522;7.266;2022-08-19T03:37:58;11.20;;;10.10;;
1446;SDS011;717;51.522;7.266;2022-08-19T03:40:26;10.90;;;10.00;;
1446;SDS011;717;51.522;7.266;2022-08-19T03:42:55;10.95;;;9.95;;
1446;SDS011;717;51.522;7.266;2022-08-19T03:45:22;11.45;;;10.40;;
1446;SDS011;717;51.522;7.266;2022-08-19T03:47:49;10.85;;;9.80;;
1446;SDS011;717;51.522;7.266;2022-08-19T03:50:17;10.18;;;9.27;;
1446;SDS011;717;51.522;7.266;2022-08-19T03:52:47;10.43;;;9.32;;
1446;SDS011;717;51.522;7.266;2022-08-19T03:55:15;11.05;;;10.13;;
1446;SDS011;717;51.522;7.266;2022-08-19T03:57:43;11.68;;;10.48;;
1446;SDS011;717;51.522;7.266;2022-08-19T04:00:12;11.05;;;10.15;;
1446;SDS011;717;51.522;7.266;2022-08-19T04:02:40;11.15;;;10.25;;
1446;SDS011;717;51.522;7.266;2022-08-19T04:05:08;11.50;;;10.00;;
1446;SDS011;717;51.522;7.266;2022-08-19T04:07:35;11.90;;;10.73;;
1446;SDS011;717;51.522;7.266;2022-08-19T04:10:02;10.63;;;9.73;;
1446;SDS011;717;51.522;7.266;2022-08-19T04:12:29;11.55;;;10.35;;
1446;SDS011;717;51.522;7.266;2022-08-19T04:14:58;12.40;;;11.10;;
1446;SDS011;717;51.522;7.266;2022-08-19T04:17:25;11.13;;;10.13;;
1446;SDS011;717;51.522;7.266;2022-08-19T04:19:51;11.88;;;10.77;;
1446;SDS011;717;51.522;7.266;2022-08-19T04:22:18;11.38;;;10.18;;
1446;SDS011;717;51.522;7.266;2022-08-19T04:24:45;12.65;;;11.27;;
1446;SDS011;717;51.522;7.266;2022-08-19T04:27:11;11.95;;;10.70;;
1446;SDS011;717;51.522;7.266;2022-08-19T04:29:39;11.75;;;10.70;;
1446;SDS011;717;51.522;7.266;2022-08-19T04:32:07;16.00;;;11.30;;
1446;SDS011;717;51.522;7.266;2022-08-19T04:34:34;11.40;;;10.23;;
1446;SDS011;717;51.522;7.266;2022-08-19T04:37:01;11.45;;;10.35;;
1446;SDS011;717;51.522;7.266;2022-08-19T04:39:36;11.25;;;10.35;;
1446;SDS011;717;51.522;7.266;2022-08-19T04:42:22;12.43;;;11.23;;
1446;SDS011;717;51.522;7.266;2022-08-19T04:45:08;12.00;;;10.90;;
1446;SDS011;717;51.522;7.266;2022-08-19T04:47:37;11.85;;;10.68;;
1446;SDS011;717;51.522;7.266;2022-08-19T04:50:05;12.65;;;11.38;;
1446;SDS011;717;51.522;7.266;2022-08-19T04:52:34;13.00;;;11.70;;
1446;SDS011;717;51.522;7.266;2022-08-19T04:55:00;14.48;;;11.77;;
1446;SDS011;717;51.522;7.266;2022-08-19T04:57:27;13.32;;;11.73;;
1446;SDS011;717;51.522;7.266;2022-08-19T04:59:54;13.10;;;11.90;;
1446;SDS011;717;51.522;7.266;2022-08-19T05:02:22;14.07;;;12.68;;
1446;SDS011;717;51.522;7.266;2022-08-19T05:04:51;13.52;;;12.23;;
1446;SDS011;717;51.522;7.266;2022-08-19T05:07:22;15.02;;;13.60;;
1446;SDS011;717;51.522;7.266;2022-08-19T05:09:48;15.40;;;12.93;;
1446;SDS011;717;51.522;7.266;2022-08-19T05:12:15;14.35;;;12.95;;
1446;SDS011;717;51.522;7.266;2022-08-19T05:14:42;13.98;;;12.68;;
1446;SDS011;717;51.522;7.266;2022-08-19T05:17:09;14.90;;;13.30;;
1446;SDS011;717;51.522;7.266;2022-08-19T05:19:36;15.60;;;14.00;;
1446;SDS011;717;51.522;7.266;2022-08-19T05:22:22;15.88;;;13.90;;
1446;SDS011;717;51.522;7.266;2022-08-19T05:24:59;14.55;;;13.10;;
1446;SDS011;717;51.522;7.266;2022-08-19T05:27:27;15.75;;;13.10;;
1446;SDS011;717;51.522;7.266;2022-08-19T05:29:54;14.93;;;13.27;;
1446;SDS011;717;51.522;7.266;2022-08-19T05:32:20;16.80;;;14.20;;
1446;SDS011;717;51.522;7.266;2022-08-19T05:34:48;16.20;;;14.50;;
1446;SDS011;717;51.522;7.266;2022-08-19T05:37:15;15.55;;;13.07;;
1446;SDS011;717;51.522;7.266;2022-08-19T05:39:43;15.43;;;13.68;;
1446;SDS011;717;51.522;7.266;2022-08-19T05:42:11;14.88;;;13.40;;
1446;SDS011;717;51.522;7.266;2022-08-19T05:44:40;14.70;;;13.18;;
1446;SDS011;717;51.522;7.266;2022-08-19T05:47:09;16.95;;;13.45;;
1446;SDS011;717;51.522;7.266;2022-08-19T05:49:38;15.02;;;13.55;;
1446;SDS011;717;51.522;7.266;2022-08-19T05:52:05;15.27;;;13.50;;
1446;SDS011;717;51.522;7.266;2022-08-19T05:54:36;15.30;;;13.73;;
1446;SDS011;717;51.522;7.266;2022-08-19T05:57:07;15.00;;;13.68;;
1446;SDS011;717;51.522;7.266;2022-08-19T05:59:34;15.77;;;14.38;;
1446;SDS011;717;51.522;7.266;2022-08-19T06:02:02;17.83;;;16.13;;
1446;SDS011;717;51.522;7.266;2022-08-19T06:04:30;17.48;;;15.68;;
1446;SDS011;717;51.522;7.266;2022-08-19T06:06:57;16.77;;;15.10;;
1446;SDS011;717;51.522;7.266;2022-08-19T06:09:24;18.00;;;16.30;;
1446;SDS011;717;51.522;7.266;2022-08-19T06:11:52;18.40;;;16.15;;
1446;SDS011;717;51.522;7.266;2022-08-19T06:14:22;17.67;;;15.98;;
1446;SDS011;717;51.522;7.266;2022-08-19T06:16:50;16.52;;;14.88;;
1446;SDS011;717;51.522;7.266;2022-08-19T06:19:18;17.23;;;15.48;;
1446;SDS011;717;51.522;7.266;2022-08-19T06:21:46;16.52;;;15.00;;
1446;SDS011;717;51.522;7.266;2022-08-19T06:24:15;16.42;;;14.57;;
1446;SDS011;717;51.522;7.266;2022-08-19T06:26:45;16.10;;;14.48;;
1446;SDS011;717;51.522;7.266;2022-08-19T06:29:14;16.90;;;15.20;;
1446;SDS011;717;51.522;7.266;2022-08-19T06:31:45;16.60;;;15.00;;
1446;SDS011;717;51.522;7.266;2022-08-19T06:34:16;16.73;;;15.02;;
1446;SDS011;717;51.522;7.266;2022-08-19T06:36:44;15.50;;;13.98;;
1446;SDS011;717;51.522;7.266;2022-08-19T06:39:14;16.33;;;14.73;;
1446;SDS011;717;51.522;7.266;2022-08-19T06:41:44;17.45;;;15.82;;
1446;SDS011;717;51.522;7.266;2022-08-19T06:44:13;20.08;;;17.35;;
1446;SDS011;717;51.522;7.266;2022-08-19T06:46:40;18.75;;;16.98;;
1446;SDS011;717;51.522;7.266;2022-08-19T06:49:09;20.40;;;18.23;;
1446;SDS011;717;51.522;7.266;2022-08-19T06:51:39;20.13;;;17.90;;
1446;SDS011;717;51.522;7.266;2022-08-19T06:54:07;19.60;;;17.67;;
1446;SDS011;717;51.522;7.266;2022-08-19T06:56:34;18.20;;;16.17;;
1446;SDS011;717;51.522;7.266;2022-08-19T06:59:01;18.48;;;16.67;;
1446;SDS011;717;51.522;7.266;2022-08-19T07:01:31;18.40;;;16.60;;
1446;SDS011;717;51.522;7.266;2022-08-19T07:04:02;18.10;;;16.40;;
1446;SDS011;717;51.522;7.266;2022-08-19T07:06:31;18.52;;;16.63;;
1446;SDS011;717;51.522;7.266;2022-08-19T07:08:58;18.77;;;17.08;;
1446;SDS011;717;51.522;7.266;2022-08-19T07:11:24;16.90;;;15.07;;
1446;SDS011;717;51.522;7.266;2022-08-19T07:13:51;18.27;;;15.25;;
1446;SDS011;717;51.522;7.266;2022-08-19T07:16:18;17.08;;;15.38;;
1446;SDS011;717;51.522;7.266;2022-08-19T07:18:46;16.50;;;14.90;;
1446;SDS011;717;51.522;7.266;2022-08-19T07:21:14;17.33;;;15.68;;
1446;SDS011;717;51.522;7.266;2022-08-19T07:23:44;15.82;;;14.30;;
1446;SDS011;717;51.522;7.266;2022-08-19T07:26:12;17.25;;;15.65;;
1446;SDS011;717;51.522;7.266;2022-08-19T07:28:42;17.15;;;15.45;;
1446;SDS011;717;51.522;7.266;2022-08-19T07:31:10;21.08;;;16.00;;
1446;SDS011;717;51.522;7.266;2022-08-19T07:33:38;17.77;;;15.55;;
1446;SDS011;717;51.522;7.266;2022-08-19T07:36:06;16.38;;;14.95;;
1446;SDS011;717;51.522;7.266;2022-08-19T07:38:35;17.75;;;15.95;;
1446;SDS011;717;51.522;7.266;2022-08-19T07:41:03;17.05;;;15.43;;
1446;SDS011;717;51.522;7.266;2022-08-19T07:43:30;17.60;;;15.90;;
1446;SDS011;717;51.522;7.266;2022-08-19T07:45:57;16.13;;;14.43;;
1446;SDS011;717;51.522;7.266;2022-08-19T07:48:24;18.10;;;15.02;;
1446;SDS011;717;51.522;7.266;2022-08-19T07:50:55;15.90;;;14.15;;
1446;SDS011;717;51.522;7.266;2022-08-19T07:53:31;14.57;;;13.15;;
1446;SDS011;717;51.522;7.266;2022-08-19T07:56:02;14.43;;;12.98;;
1446;SDS011;717;51.522;7.266;2022-08-19T07:58:32;13.77;;;12.48;;
1446;SDS011;717;51.522;7.266;2022-08-19T08:01:02;15.63;;;12.38;;
1446;SDS011;717;51.522;7.266;2022-08-19T08:03:31;15.18;;;12.35;;
1446;SDS011;717;51.522;7.266;2022-08-19T08:06:21;13.65;;;12.25;;
1446;SDS011;717;51.522;7.266;2022-08-19T08:09:07;16.73;;;14.05;;
1446;SDS011;717;51.522;7.266;2022-08-19T08:11:38;16.00;;;14.30;;
1446;SDS011;717;51.522;7.266;2022-08-19T08:14:06;17.88;;;14.65;;
1446;SDS011;717;51.522;7.266;2022-08-19T08:16:35;17.38;;;15.60;;
1446;SDS011;717;51.522;7.266;2022-08-19T08:19:03;17.35;;;15.27;;
1446;SDS011;717;51.522;7.266;2022-08-19T08:21:31;18.77;;;16.13;;
1446;SDS011;717;51.522;7.266;2022-08-19T08:24:01;18.13;;;15.15;;
1446;SDS011;717;51.522;7.266;2022-08-19T08:26:29;15.20;;;13.65;;
1446;SDS011;717;51.522;7.266;2022-08-19T08:28:57;19.85;;;16.48;;
1446;SDS011;717;51.522;7.266;2022-08-19T08:31:24;18.98;;;17.08;;
1446;SDS011;717;51.522;7.266;2022-08-19T08:33:50;21.05;;;17.77;;
1446;SDS011;717;51.522;7.266;2022-08-19T08:36:17;18.40;;;15.68;;
1446;SDS011;717;51.522;7.266;2022-08-19T08:38:44;19.48;;;17.45;;
1446;SDS011;717;51.522;7.266;2022-08-19T08:41:14;19.45;;;17.45;;
1446;SDS011;717;51.522;7.266;2022-08-19T08:43:48;20.75;;;18.55;;
1446;SDS011;717;51.522;7.266;2022-08-19T08:46:19;19.48;;;17.60;;
1446;SDS011;717;51.522;7.266;2022-08-19T08:48:52;19.98;;;17.92;;
1446;SDS011;717;51.522;7.266;2022-08-19T08:51:26;19.95;;;17.77;;
1446;SDS011;717;51.522;7.266;2022-08-19T08:53:58;20.83;;;18.83;;
1446;SDS011;717;51.522;7.266;2022-08-19T08:56:26;22.25;;;20.10;;
1446;SDS011;717;51.522;7.266;2022-08-19T08:58:54;19.98;;;17.92;;
1446;SDS011;717;51.522;7.266;2022-08-19T09:01:26;20.95;;;18.67;;
1446;SDS011;717;51.522;7.266;2022-08-19T09:03:53;21.73;;;19.48;;
1446;SDS011;717;51.522;7.266;2022-08-19T09:06:22;19.75;;;17.83;;
1446;SDS011;717;51.522;7.266;2022-08-19T09:09:04;19.95;;;17.55;;
1446;SDS011;717;51.522;7.266;2022-08-19T09:11:42;20.17;;;18.08;;
1446;SDS011;717;51.522;7.266;2022-08-19T09:14:27;21.33;;;19.13;;
1446;SDS011;717;51.522;7.266;2022-08-19T09:17:04;22.92;;;20.63;;
1446;SDS011;717;51.522;7.266;2022-08-19T09:19:32;21.05;;;18.95;;
1446;SDS011;717;51.522;7.266;2022-08-19T09:22:00;19.02;;;17.15;;
1446;SDS011;717;51.522;7.266;2022-08-19T09:24:26;23.77;;;21.48;;
1446;SDS011;717;51.522;7.266;2022-08-19T09:26:53;23.42;;;21.13;;
1446;SDS011;717;51.522;7.266;2022-08-19T09:29:20;25.50;;;22.88;;
1446;SDS011;717;51.522;7.266;2022-08-19T09:31:47;21.23;;;19.23;;
1446;SDS011;717;51.522;7.266;2022-08-19T09:34:16;27.17;;;24.40;;
1446;SDS011;717;51.522;7.266;2022-08-19T09:36:44;28.20;;;25.15;;
1446;SDS011;717;51.522;7.266;2022-08-19T09:39:11;26.05;;;23.40;;
1446;SDS011;717;51.522;7.266;2022-08-19T09:41:38;16.77;;;14.98;;
1446;SDS011;717;51.522;7.266;2022-08-19T09:44:05;18.33;;;16.58;;
1446;SDS011;717;51.522;7.266;2022-08-19T09:46:31;20.77;;;16.25;;
1446;SDS011;717;51.522;7.266;2022-08-19T09:48:59;13.73;;;12.43;;
1446;SDS011;717;51.522;7.266;2022-08-19T09:51:27;14.77;;;13.43;;
1446;SDS011;717;51.522;7.266;2022-08-19T09:53:55;13.63;;;12.43;;
1446;SDS011;717;51.522;7.266;2022-08-19T09:56:25;15.95;;;14.43;;
1446;SDS011;717;51.522;7.266;2022-08-19T09:58:52;12.25;;;11.20;;
1446;SDS011;717;51.522;7.266;2022-08-19T10:01:20;13.43;;;12.10;;
1446;SDS011;717;51.522;7.266;2022-08-19T10:03:48;13.70;;;12.40;;
1446;SDS011;717;51.522;7.266;2022-08-19T10:06:17;14.13;;;11.75;;
1446;SDS011;717;51.522;7.266;2022-08-19T10:08:46;13.40;;;12.10;;
1446;SDS011;717;51.522;7.266;2022-08-19T10:11:13;13.32;;;12.02;;
1446;SDS011;717;51.522;7.266;2022-08-19T10:13:42;14.48;;;13.18;;
1446;SDS011;717;51.522;7.266;2022-08-19T10:16:10;13.85;;;12.48;;
1446;SDS011;717;51.522;7.266;2022-08-19T10:18:41;11.70;;;10.55;;
1446;SDS011;717;51.522;7.266;2022-08-19T10:21:09;13.15;;;11.85;;
1446;SDS011;717;51.522;7.266;2022-08-19T10:23:39;14.73;;;13.38;;
1446;SDS011;717;51.522;7.266;2022-08-19T10:26:11;13.63;;;12.32;;
1446;SDS011;717;51.522;7.266;2022-08-19T10:28:39;12.70;;;11.43;;
1446;SDS011;717;51.522;7.266;2022-08-19T10:31:07;14.80;;;13.40;;
1446;SDS011;717;51.522;7.266;2022-08-19T10:33:36;14.50;;;13.20;;
1446;SDS011;717;51.522;7.266;2022-08-19T10:36:05;14.88;;;13.40;;
1446;SDS011;717;51.522;7.266;2022-08-19T10:38:34;11.90;;;10.70;;
1446;SDS011;717;51.522;7.266;2022-08-19T10:41:08;11.48;;;10.48;;
1446;SDS011;717;51.522;7.266;2022-08-19T10:43:38;12.85;;;11.75;;
1446;SDS011;717;51.522;7.266;2022-08-19T10:46:06;12.73;;;11.52;;
1446;SDS011;717;51.522;7.266;2022-08-19T10:48:33;11.63;;;10.43;;
1446;SDS011;717;51.522;7.266;2022-08-19T10:51:00;11.88;;;10.65;;
1446;SDS011;717;51.522;7.266;2022-08-19T10:53:46;11.98;;;10.93;;
1446;SDS011;717;51.522;7.266;2022-08-19T10:56:14;11.48;;;10.48;;
1446;SDS011;717;51.522;7.266;2022-08-19T10:58:59;10.10;;;9.20;;
1446;SDS011;717;51.522;7.266;2022-08-19T11:01:28;11.20;;;10.07;;
1446;SDS011;717;51.522;7.266;2022-08-19T11:03:55;11.00;;;10.00;;
1446;SDS011;717;51.522;7.266;2022-08-19T11:06:22;11.00;;;9.77;;
1446;SDS011;717;51.522;7.266;2022-08-19T11:08:50;10.57;;;9.45;;
1446;SDS011;717;51.522;7.266;2022-08-19T11:11:19;12.65;;;11.55;;
1446;SDS011;717;51.522;7.266;2022-08-19T11:13:46;9.40;;;8.50;;
1446;SDS011;717;51.522;7.266;2022-08-19T11:16:15;10.93;;;9.90;;
1446;SDS011;717;51.522;7.266;2022-08-19T11:18:46;10.68;;;9.68;;
1446;SDS011;717;51.522;7.266;2022-08-19T11:21:15;11.18;;;10.07;;
1446;SDS011;717;51.522;7.266;2022-08-19T11:23:44;11.43;;;10.30;;
1446;SDS011;717;51.522;7.266;2022-08-19T11:26:12;11.07;;;10.07;;
1446;SDS011;717;51.522;7.266;2022-08-19T11:28:41;12.90;;;11.23;;
1446;SDS011;717;51.522;7.266;2022-08-19T11:31:11;11.48;;;10.45;;
1446;SDS011;717;51.522;7.266;2022-08-19T11:33:39;12.38;;;11.38;;
1446;SDS011;717;51.522;7.266;2022-08-19T11:36:06;11.98;;;10.98;;
1446;SDS011;717;51.522;7.266;2022-08-19T11:38:33;14.63;;;12.82;;
1446;SDS011;717;51.522;7.266;2022-08-19T11:41:01;12.88;;;11.68;;
1446;SDS011;717;51.522;7.266;2022-08-19T11:43:30;15.35;;;13.85;;
1446;SDS011;717;51.522;7.266;2022-08-19T11:45:58;16.10;;;14.68;;
1446;SDS011;717;51.522;7.266;2022-08-19T11:48:25;17.38;;;15.70;;
1446;SDS011;717;51.522;7.266;2022-08-19T11:50:52;16.60;;;15.05;;
1446;SDS011;717;51.522;7.266;2022-08-19T11:53:20;16.52;;;14.88;;
1446;SDS011;717;51.522;7.266;2022-08-19T11:55:47;14.57;;;13.30;;
1446;SDS011;717;51.522;7.266;2022-08-19T11:58:15;12.82;;;11.63;;
1446;SDS011;717;51.522;7.266;2022-08-19T12:00:43;14.98;;;13.60;;
1446;SDS011;717;51.522;7.266;2022-08-19T12:03:12;12.68;;;11.50;;
1446;SDS011;717;51.522;7.266;2022-08-19T12:05:40;11.98;;;10.90;;
1446;SDS011;717;51.522;7.266;2022-08-19T12:08:07;16.00;;;14.35;;
1446;SDS011;717;51.522;7.266;2022-08-19T12:10:36;19.50;;;17.60;;
1446;SDS011;717;51.522;7.266;2022-08-19T12:13:03;17.27;;;15.40;;
1446;SDS011;717;51.522;7.266;2022-08-19T12:15:30;15.32;;;13.60;;
1446;SDS011;717;51.522;7.266;2022-08-19T12:18:01;14.38;;;13.10;;
1446;SDS011;717;51.522;7.266;2022-08-19T12:20:30;15.18;;;13.77;;
1446;SDS011;717;51.522;7.266;2022-08-19T12:22:57;16.63;;;15.02;;
1446;SDS011;717;51.522;7.266;2022-08-19T12:25:23;13.57;;;12.32;;
1446;SDS011;717;51.522;7.266;2022-08-19T12:27:50;14.45;;;13.10;;
1446;SDS011;717;51.522;7.266;2022-08-19T12:30:17;13.80;;;12.70;;
1446;SDS011;717;51.522;7.266;2022-08-19T12:32:43;14.90;;;13.48;;
1446;SDS011;717;51.522;7.266;2022-08-19T12:35:10;14.93;;;13.48;;
1446;SDS011;717;51.522;7.266;2022-08-19T12:37:39;12.45;;;11.38;;
1446;SDS011;717;51.522;7.266;2022-08-19T12:40:09;12.40;;;11.30;;
1446;SDS011;717;51.522;7.266;2022-08-19T12:42:37;10.52;;;9.63;;
1446;SDS011;717;51.522;7.266;2022-08-19T12:45:07;9.82;;;8.82;;
1446;SDS011;717;51.522;7.266;2022-08-19T12:47:34;7.93;;;7.32;;
1446;SDS011;717;51.522;7.266;2022-08-19T12:50:02;8.57;;;7.88;;
1446;SDS011;717;51.522;7.266;2022-08-19T12:52:29;9.43;;;8.18;;
1446;SDS011;717;51.522;7.266;2022-08-19T12:54:57;9.32;;;8.60;;
1446;SDS011;717;51.522;7.266;2022-08-19T12:57:25;8.82;;;8.07;;
1446;SDS011;717;51.522;7.266;2022-08-19T12:59:53;9.02;;;8.32;;
1446;SDS011;717;51.522;7.266;2022-08-19T13:02:20;8.25;;;7.50;;
1446;SDS011;717;51.522;7.266;2022-08-19T13:04:47;9.02;;;8.13;;
1446;SDS011;717;51.522;7.266;2022-08-19T13:07:14;8.52;;;7.72;;
1446;SDS011;717;51.522;7.266;2022-08-19T13:09:41;8.63;;;7.25;;
1446;SDS011;717;51.522;7.266;2022-08-19T13:12:09;7.53;;;6.93;;
1446;SDS011;717;51.522;7.266;2022-08-19T13:14:37;7.40;;;6.70;;
1446;SDS011;717;51.522;7.266;2022-08-19T13:17:05;6.78;;;6.15;;
1446;SDS011;717;51.522;7.266;2022-08-19T13:19:32;9.30;;;7.43;;
1446;SDS011;717;51.522;7.266;2022-08-19T13:21:58;7.80;;;7.03;;
1446;SDS011;717;51.522;7.266;2022-08-19T13:24:25;7.93;;;7.13;;
1446;SDS011;717;51.522;7.266;2022-08-19T13:26:52;8.48;;;7.70;;
1446;SDS011;717;51.522;7.266;2022-08-19T13:29:20;7.70;;;7.00;;
1446;SDS011;717;51.522;7.266;2022-08-19T13:32:04;8.68;;;7.88;;
1446;SDS011;717;51.522;7.266;2022-08-19T13:34:49;7.88;;;6.47;;
1446;SDS011;717;51.522;7.266;2022-08-19T13:37:15;7.65;;;6.75;;
1446;SDS011;717;51.522;7.266;2022-08-19T13:40:02;8.63;;;7.40;;
1446;SDS011;717;51.522;7.266;2022-08-19T13:42:30;8.00;;;7.30;;
1446;SDS011;717;51.522;7.266;2022-08-19T13:44:59;7.15;;;6.53;;
1446;SDS011;717;51.522;7.266;2022-08-19T13:47:26;6.75;;;6.25;;
1446;SDS011;717;51.522;7.266;2022-08-19T13:49:52;6.80;;;6.20;;
1446;SDS011;717;51.522;7.266;2022-08-19T13:52:19;6.55;;;6.00;;
1446;SDS011;717;51.522;7.266;2022-08-19T13:54:47;6.30;;;5.70;;
1446;SDS011;717;51.522;7.266;2022-08-19T13:57:14;6.88;;;6.18;;
1446;SDS011;717;51.522;7.266;2022-08-19T13:59:40;8.00;;;6.32;;
1446;SDS011;717;51.522;7.266;2022-08-19T14:02:08;6.38;;;5.90;;
1446;SDS011;717;51.522;7.266;2022-08-19T14:04:35;6.93;;;5.57;;
1446;SDS011;717;51.522;7.266;2022-08-19T14:07:03;5.35;;;4.90;;
1446;SDS011;717;51.522;7.266;2022-08-19T14:09:30;5.30;;;4.80;;
1446;SDS011;717;51.522;7.266;2022-08-19T14:11:57;6.30;;;4.90;;
1446;SDS011;717;51.522;7.266;2022-08-19T14:14:24;5.40;;;4.90;;
1446;SDS011;717;51.522;7.266;2022-08-19T14:16:51;5.13;;;4.35;;
1446;SDS011;717;51.522;7.266;2022-08-19T14:19:19;5.18;;;4.65;;
1446;SDS011;717;51.522;7.266;2022-08-19T14:21:46;5.35;;;4.85;;
1446;SDS011;717;51.522;7.266;2022-08-19T14:24:13;5.75;;;4.32;;
1446;SDS011;717;51.522;7.266;2022-08-19T14:26:40;4.68;;;4.35;;
1446;SDS011;717;51.522;7.266;2022-08-19T14:29:07;4.50;;;4.10;;
1446;SDS011;717;51.522;7.266;2022-08-19T14:31:33;7.68;;;4.82;;
1446;SDS011;717;51.522;7.266;2022-08-19T14:34:00;4.72;;;4.32;;
1446;SDS011;717;51.522;7.266;2022-08-19T14:36:28;5.63;;;3.70;;
1446;SDS011;717;51.522;7.266;2022-08-19T14:38:56;4.35;;;3.95;;
1446;SDS011;717;51.522;7.266;2022-08-19T14:41:23;5.40;;;4.10;;
1446;SDS011;717;51.522;7.266;2022-08-19T14:43:52;4.10;;;3.80;;
1446;SDS011;717;51.522;7.266;2022-08-19T14:46:20;4.72;;;3.80;;
1446;SDS011;717;51.522;7.266;2022-08-19T14:48:50;4.43;;;3.38;;
1446;SDS011;717;51.522;7.266;2022-08-19T14:51:17;4.90;;;3.42;;
1446;SDS011;717;51.522;7.266;2022-08-19T14:53:45;4.38;;;3.88;;
1446;SDS011;717;51.522;7.266;2022-08-19T14:56:14;5.53;;;4.05;;
1446;SDS011;717;51.522;7.266;2022-08-19T14:58:43;4.55;;;3.63;;
1446;SDS011;717;51.522;7.266;2022-08-19T15:01:10;3.97;;;3.58;;
1446;SDS011;717;51.522;7.266;2022-08-19T15:03:38;8.55;;;3.95;;
1446;SDS011;717;51.522;7.266;2022-08-19T15:06:06;5.38;;;3.00;;
1446;SDS011;717;51.522;7.266;2022-08-19T15:08:34;4.55;;;4.05;;
1446;SDS011;717;51.522;7.266;2022-08-19T15:11:08;4.65;;;4.15;;
1446;SDS011;717;51.522;7.266;2022-08-19T15:13:36;4.43;;;3.92;;
1446;SDS011;717;51.522;7.266;2022-08-19T15:16:04;4.18;;;3.85;;
1446;SDS011;717;51.522;7.266;2022-08-19T15:18:31;3.83;;;3.53;;
1446;SDS011;717;51.522;7.266;2022-08-19T15:20:59;4.97;;;3.90;;